sensor_id;sensor_type;location;lat;lon;timestamp;P1;durP1;ratioP1;P2;durP2;ratioP2
36351;SDS011;22382;44.768;17.206;2023-06-26T00:02:17;9.48;;;7.13;;
36351;SDS011;22382;44.768;17.206;2023-06-26T00:04:44;8.32;;;6.72;;
36351;SDS011;22382;44.768;17.206;2023-06-26T00:07:11;11.38;;;7.28;;
36351;SDS011;22382;44.768;17.206;2023-06-26T00:09:39;9.48;;;6.93;;
36351;SDS011;22382;44.768;17.206;2023-06-26T00:12:06;11.20;;;7.82;;
36351;SDS011;22382;44.768;17.206;2023-06-26T00:14:39;9.98;;;7.40;;
36351;SDS011;22382;44.768;17.206;2023-06-26T00:17:11;9.05;;;7.30;;
36351;SDS011;22382;44.768;17.206;2023-06-26T00:19:43;9.00;;;7.03;;
36351;SDS011;22382;44.768;17.206;2023-06-26T00:22:14;10.85;;;7.30;;
36351;SDS011;22382;44.768;17.206;2023-06-26T00:24:47;7.72;;;6.68;;
36351;SDS011;22382;44.768;17.206;2023-06-26T00:27:19;11.68;;;7.50;;
36351;SDS011;22382;44.768;17.206;2023-06-26T00:29:51;8.82;;;6.93;;
36351;SDS011;22382;44.768;17.206;2023-06-26T00:32:23;7.32;;;6.57;;
36351;SDS011;22382;44.768;17.206;2023-06-26T00:34:55;9.18;;;6.72;;
36351;SDS011;22382;44.768;17.206;2023-06-26T00:37:27;8.98;;;7.03;;
36351;SDS011;22382;44.768;17.206;2023-06-26T00:40:00;11.23;;;7.63;;
36351;SDS011;22382;44.768;17.206;2023-06-26T00:42:34;11.40;;;7.07;;
36351;SDS011;22382;44.768;17.206;2023-06-26T00:45:08;9.43;;;7.10;;
36351;SDS011;22382;44.768;17.206;2023-06-26T00:47:41;9.73;;;6.32;;
36351;SDS011;22382;44.768;17.206;2023-06-26T00:50:13;9.15;;;6.80;;
36351;SDS011;22382;44.768;17.206;2023-06-26T00:52:46;8.18;;;7.35;;
36351;SDS011;22382;44.768;17.206;2023-06-26T00:55:20;8.57;;;7.40;;
36351;SDS011;22382;44.768;17.206;2023-06-26T00:57:52;9.75;;;8.05;;
36351;SDS011;22382;44.768;17.206;2023-06-26T01:00:25;8.55;;;6.63;;
36351;SDS011;22382;44.768;17.206;2023-06-26T01:02:57;10.20;;;7.05;;
36351;SDS011;22382;44.768;17.206;2023-06-26T01:05:31;8.45;;;7.28;;
36351;SDS011;22382;44.768;17.206;2023-06-26T01:08:04;9.50;;;6.97;;
36351;SDS011;22382;44.768;17.206;2023-06-26T01:10:37;10.82;;;7.10;;
36351;SDS011;22382;44.768;17.206;2023-06-26T01:15:42;10.77;;;7.25;;
36351;SDS011;22382;44.768;17.206;2023-06-26T01:18:15;9.40;;;6.95;;
36351;SDS011;22382;44.768;17.206;2023-06-26T01:20:43;8.88;;;7.15;;
36351;SDS011;22382;44.768;17.206;2023-06-26T01:23:57;8.85;;;7.20;;
36351;SDS011;22382;44.768;17.206;2023-06-26T01:28:42;10.65;;;7.10;;
36351;SDS011;22382;44.768;17.206;2023-06-26T01:31:10;8.40;;;7.50;;
36351;SDS011;22382;44.768;17.206;2023-06-26T01:33:39;10.88;;;7.97;;
36351;SDS011;22382;44.768;17.206;2023-06-26T01:36:08;10.50;;;8.20;;
36351;SDS011;22382;44.768;17.206;2023-06-26T01:38:35;9.43;;;7.40;;
36351;SDS011;22382;44.768;17.206;2023-06-26T01:41:02;9.63;;;7.53;;
36351;SDS011;22382;44.768;17.206;2023-06-26T01:43:34;8.45;;;7.22;;
36351;SDS011;22382;44.768;17.206;2023-06-26T01:46:06;9.25;;;7.68;;
36351;SDS011;22382;44.768;17.206;2023-06-26T01:48:49;11.23;;;7.43;;
36351;SDS011;22382;44.768;17.206;2023-06-26T01:51:32;10.95;;;7.45;;
36351;SDS011;22382;44.768;17.206;2023-06-26T01:54:06;10.05;;;7.80;;
36351;SDS011;22382;44.768;17.206;2023-06-26T01:56:37;9.60;;;7.90;;
36351;SDS011;22382;44.768;17.206;2023-06-26T01:59:06;8.70;;;7.70;;
36351;SDS011;22382;44.768;17.206;2023-06-26T02:01:35;11.15;;;7.90;;
36351;SDS011;22382;44.768;17.206;2023-06-26T02:04:02;11.57;;;8.02;;
36351;SDS011;22382;44.768;17.206;2023-06-26T02:06:30;9.27;;;7.68;;
36351;SDS011;22382;44.768;17.206;2023-06-26T02:08:57;11.02;;;7.40;;
36351;SDS011;22382;44.768;17.206;2023-06-26T02:11:24;11.57;;;7.50;;
36351;SDS011;22382;44.768;17.206;2023-06-26T02:13:52;9.20;;;7.28;;
36351;SDS011;22382;44.768;17.206;2023-06-26T02:16:19;10.38;;;7.53;;
36351;SDS011;22382;44.768;17.206;2023-06-26T02:18:46;9.77;;;7.97;;
36351;SDS011;22382;44.768;17.206;2023-06-26T02:21:13;9.80;;;7.90;;
36351;SDS011;22382;44.768;17.206;2023-06-26T02:23:41;8.43;;;7.53;;
36351;SDS011;22382;44.768;17.206;2023-06-26T02:26:08;11.77;;;8.07;;
36351;SDS011;22382;44.768;17.206;2023-06-26T02:28:35;11.55;;;7.78;;
36351;SDS011;22382;44.768;17.206;2023-06-26T02:31:02;10.98;;;7.88;;
36351;SDS011;22382;44.768;17.206;2023-06-26T02:33:30;9.85;;;7.85;;
36351;SDS011;22382;44.768;17.206;2023-06-26T02:35:57;10.45;;;8.30;;
36351;SDS011;22382;44.768;17.206;2023-06-26T02:38:24;12.15;;;7.55;;
36351;SDS011;22382;44.768;17.206;2023-06-26T02:40:51;9.40;;;8.15;;
36351;SDS011;22382;44.768;17.206;2023-06-26T02:43:18;11.07;;;7.80;;
36351;SDS011;22382;44.768;17.206;2023-06-26T02:45:45;9.30;;;7.22;;
36351;SDS011;22382;44.768;17.206;2023-06-26T02:48:13;11.30;;;7.75;;
36351;SDS011;22382;44.768;17.206;2023-06-26T02:50:40;10.13;;;8.23;;
36351;SDS011;22382;44.768;17.206;2023-06-26T02:53:07;10.30;;;7.57;;
36351;SDS011;22382;44.768;17.206;2023-06-26T02:55:35;11.82;;;8.27;;
36351;SDS011;22382;44.768;17.206;2023-06-26T02:58:02;9.63;;;8.27;;
36351;SDS011;22382;44.768;17.206;2023-06-26T03:00:29;11.23;;;8.25;;
36351;SDS011;22382;44.768;17.206;2023-06-26T03:02:57;9.68;;;8.07;;
36351;SDS011;22382;44.768;17.206;2023-06-26T03:05:24;10.90;;;8.23;;
36351;SDS011;22382;44.768;17.206;2023-06-26T03:07:51;11.13;;;8.10;;
36351;SDS011;22382;44.768;17.206;2023-06-26T03:10:18;9.57;;;8.20;;
36351;SDS011;22382;44.768;17.206;2023-06-26T03:12:45;11.32;;;8.20;;
36351;SDS011;22382;44.768;17.206;2023-06-26T03:15:13;13.18;;;7.97;;
36351;SDS011;22382;44.768;17.206;2023-06-26T03:17:40;10.35;;;8.30;;
36351;SDS011;22382;44.768;17.206;2023-06-26T03:20:07;11.13;;;8.18;;
36351;SDS011;22382;44.768;17.206;2023-06-26T03:22:35;9.88;;;8.10;;
36351;SDS011;22382;44.768;17.206;2023-06-26T03:25:03;11.85;;;8.77;;
36351;SDS011;22382;44.768;17.206;2023-06-26T03:27:31;10.65;;;8.20;;
36351;SDS011;22382;44.768;17.206;2023-06-26T03:29:58;10.48;;;8.52;;
36351;SDS011;22382;44.768;17.206;2023-06-26T03:32:25;9.43;;;7.68;;
36351;SDS011;22382;44.768;17.206;2023-06-26T03:34:52;10.95;;;7.93;;
36351;SDS011;22382;44.768;17.206;2023-06-26T03:37:20;10.35;;;8.18;;
36351;SDS011;22382;44.768;17.206;2023-06-26T03:39:47;9.75;;;7.65;;
36351;SDS011;22382;44.768;17.206;2023-06-26T03:42:14;10.00;;;7.75;;
36351;SDS011;22382;44.768;17.206;2023-06-26T03:44:42;10.30;;;7.35;;
36351;SDS011;22382;44.768;17.206;2023-06-26T03:47:09;9.48;;;6.72;;
36351;SDS011;22382;44.768;17.206;2023-06-26T03:49:36;8.82;;;6.90;;
36351;SDS011;22382;44.768;17.206;2023-06-26T03:52:03;7.72;;;6.93;;
36351;SDS011;22382;44.768;17.206;2023-06-26T03:54:30;9.63;;;6.30;;
36351;SDS011;22382;44.768;17.206;2023-06-26T03:57:00;9.05;;;6.18;;
36351;SDS011;22382;44.768;17.206;2023-06-26T03:59:27;6.07;;;5.22;;
36351;SDS011;22382;44.768;17.206;2023-06-26T04:01:55;10.30;;;5.97;;
36351;SDS011;22382;44.768;17.206;2023-06-26T04:04:23;7.35;;;5.80;;
36351;SDS011;22382;44.768;17.206;2023-06-26T04:06:50;10.75;;;6.25;;
36351;SDS011;22382;44.768;17.206;2023-06-26T04:09:17;8.23;;;6.00;;
36351;SDS011;22382;44.768;17.206;2023-06-26T04:11:46;7.53;;;5.65;;
36351;SDS011;22382;44.768;17.206;2023-06-26T04:14:13;9.60;;;6.03;;
36351;SDS011;22382;44.768;17.206;2023-06-26T04:16:40;7.95;;;5.55;;
36351;SDS011;22382;44.768;17.206;2023-06-26T04:19:07;7.80;;;5.50;;
36351;SDS011;22382;44.768;17.206;2023-06-26T04:21:36;8.18;;;5.53;;
36351;SDS011;22382;44.768;17.206;2023-06-26T04:24:04;7.25;;;5.97;;
36351;SDS011;22382;44.768;17.206;2023-06-26T04:26:31;7.97;;;5.88;;
36351;SDS011;22382;44.768;17.206;2023-06-26T04:28:59;8.25;;;5.10;;
36351;SDS011;22382;44.768;17.206;2023-06-26T04:31:27;7.05;;;5.15;;
36351;SDS011;22382;44.768;17.206;2023-06-26T04:33:54;7.38;;;5.93;;
36351;SDS011;22382;44.768;17.206;2023-06-26T04:36:21;9.75;;;5.43;;
36351;SDS011;22382;44.768;17.206;2023-06-26T04:38:49;8.77;;;5.82;;
36351;SDS011;22382;44.768;17.206;2023-06-26T04:41:16;7.43;;;6.00;;
36351;SDS011;22382;44.768;17.206;2023-06-26T04:43:43;9.32;;;5.53;;
36351;SDS011;22382;44.768;17.206;2023-06-26T04:46:10;8.07;;;5.40;;
36351;SDS011;22382;44.768;17.206;2023-06-26T04:48:39;8.93;;;5.57;;
36351;SDS011;22382;44.768;17.206;2023-06-26T04:51:06;6.05;;;5.25;;
36351;SDS011;22382;44.768;17.206;2023-06-26T04:53:33;8.30;;;6.03;;
36351;SDS011;22382;44.768;17.206;2023-06-26T04:56:00;8.30;;;5.95;;
36351;SDS011;22382;44.768;17.206;2023-06-26T04:58:27;14.02;;;8.20;;
36351;SDS011;22382;44.768;17.206;2023-06-26T05:00:55;10.10;;;7.72;;
36351;SDS011;22382;44.768;17.206;2023-06-26T05:03:22;10.50;;;7.32;;
36351;SDS011;22382;44.768;17.206;2023-06-26T05:05:50;8.15;;;5.55;;
36351;SDS011;22382;44.768;17.206;2023-06-26T05:08:23;10.00;;;6.18;;
36351;SDS011;22382;44.768;17.206;2023-06-26T05:10:52;8.13;;;6.47;;
36351;SDS011;22382;44.768;17.206;2023-06-26T05:13:24;7.40;;;6.18;;
36351;SDS011;22382;44.768;17.206;2023-06-26T05:15:52;8.85;;;5.70;;
36351;SDS011;22382;44.768;17.206;2023-06-26T05:18:19;10.82;;;7.70;;
36351;SDS011;22382;44.768;17.206;2023-06-26T05:20:47;9.10;;;8.13;;
36351;SDS011;22382;44.768;17.206;2023-06-26T05:23:14;13.82;;;9.65;;
36351;SDS011;22382;44.768;17.206;2023-06-26T05:25:43;8.45;;;6.30;;
36351;SDS011;22382;44.768;17.206;2023-06-26T05:28:11;10.18;;;5.80;;
36351;SDS011;22382;44.768;17.206;2023-06-26T05:30:39;7.10;;;5.30;;
36351;SDS011;22382;44.768;17.206;2023-06-26T05:33:07;7.60;;;5.60;;
36351;SDS011;22382;44.768;17.206;2023-06-26T05:35:37;7.03;;;5.65;;
36351;SDS011;22382;44.768;17.206;2023-06-26T05:38:05;9.55;;;5.88;;
36351;SDS011;22382;44.768;17.206;2023-06-26T05:40:33;11.98;;;6.43;;
36351;SDS011;22382;44.768;17.206;2023-06-26T05:43:01;8.10;;;5.40;;
36351;SDS011;22382;44.768;17.206;2023-06-26T05:45:29;9.50;;;6.35;;
36351;SDS011;22382;44.768;17.206;2023-06-26T05:47:56;8.48;;;5.60;;
36351;SDS011;22382;44.768;17.206;2023-06-26T05:50:24;8.45;;;5.30;;
36351;SDS011;22382;44.768;17.206;2023-06-26T05:52:53;9.68;;;5.97;;
36351;SDS011;22382;44.768;17.206;2023-06-26T05:55:21;8.18;;;5.45;;
36351;SDS011;22382;44.768;17.206;2023-06-26T05:57:49;10.00;;;5.97;;
36351;SDS011;22382;44.768;17.206;2023-06-26T06:00:17;6.03;;;4.65;;
36351;SDS011;22382;44.768;17.206;2023-06-26T06:02:45;9.35;;;5.53;;
36351;SDS011;22382;44.768;17.206;2023-06-26T06:05:12;8.60;;;5.07;;
36351;SDS011;22382;44.768;17.206;2023-06-26T06:07:42;6.95;;;5.40;;
36351;SDS011;22382;44.768;17.206;2023-06-26T06:10:10;8.35;;;5.20;;
36351;SDS011;22382;44.768;17.206;2023-06-26T06:12:37;7.20;;;4.80;;
36351;SDS011;22382;44.768;17.206;2023-06-26T06:15:05;5.88;;;4.72;;
36351;SDS011;22382;44.768;17.206;2023-06-26T06:17:33;5.60;;;4.95;;
36351;SDS011;22382;44.768;17.206;2023-06-26T06:20:00;6.15;;;5.03;;
36351;SDS011;22382;44.768;17.206;2023-06-26T06:22:27;9.00;;;6.88;;
36351;SDS011;22382;44.768;17.206;2023-06-26T06:24:54;10.75;;;6.57;;
36351;SDS011;22382;44.768;17.206;2023-06-26T06:27:23;11.65;;;7.85;;
36351;SDS011;22382;44.768;17.206;2023-06-26T06:29:50;5.68;;;4.90;;
36351;SDS011;22382;44.768;17.206;2023-06-26T06:32:17;6.72;;;5.82;;
36351;SDS011;22382;44.768;17.206;2023-06-26T06:34:44;11.15;;;6.00;;
36351;SDS011;22382;44.768;17.206;2023-06-26T06:37:12;9.00;;;5.68;;
36351;SDS011;22382;44.768;17.206;2023-06-26T06:39:39;6.65;;;5.50;;
36351;SDS011;22382;44.768;17.206;2023-06-26T06:42:06;5.90;;;4.65;;
36351;SDS011;22382;44.768;17.206;2023-06-26T06:44:34;8.05;;;5.05;;
36351;SDS011;22382;44.768;17.206;2023-06-26T06:47:01;9.02;;;5.00;;
36351;SDS011;22382;44.768;17.206;2023-06-26T06:49:29;6.22;;;4.43;;
36351;SDS011;22382;44.768;17.206;2023-06-26T06:51:56;6.78;;;4.78;;
36351;SDS011;22382;44.768;17.206;2023-06-26T06:54:25;9.85;;;6.45;;
36351;SDS011;22382;44.768;17.206;2023-06-26T06:56:54;7.68;;;5.50;;
36351;SDS011;22382;44.768;17.206;2023-06-26T06:59:21;7.43;;;5.60;;
36351;SDS011;22382;44.768;17.206;2023-06-26T07:01:49;8.10;;;6.70;;
36351;SDS011;22382;44.768;17.206;2023-06-26T07:04:16;8.60;;;6.15;;
36351;SDS011;22382;44.768;17.206;2023-06-26T07:06:43;6.60;;;5.22;;
36351;SDS011;22382;44.768;17.206;2023-06-26T07:09:11;7.53;;;5.50;;
36351;SDS011;22382;44.768;17.206;2023-06-26T07:11:38;7.40;;;5.40;;
36351;SDS011;22382;44.768;17.206;2023-06-26T07:14:05;7.85;;;5.35;;
36351;SDS011;22382;44.768;17.206;2023-06-26T07:16:32;6.50;;;4.60;;
36351;SDS011;22382;44.768;17.206;2023-06-26T07:18:59;6.28;;;4.50;;
36351;SDS011;22382;44.768;17.206;2023-06-26T07:21:27;7.60;;;4.95;;
36351;SDS011;22382;44.768;17.206;2023-06-26T07:23:54;7.30;;;5.15;;
36351;SDS011;22382;44.768;17.206;2023-06-26T07:26:21;4.95;;;4.45;;
36351;SDS011;22382;44.768;17.206;2023-06-26T07:29:09;9.18;;;5.18;;
36351;SDS011;22382;44.768;17.206;2023-06-26T07:31:36;6.72;;;5.00;;
36351;SDS011;22382;44.768;17.206;2023-06-26T07:34:03;6.20;;;5.13;;
36351;SDS011;22382;44.768;17.206;2023-06-26T07:36:30;6.78;;;5.15;;
36351;SDS011;22382;44.768;17.206;2023-06-26T07:38:58;6.82;;;5.28;;
36351;SDS011;22382;44.768;17.206;2023-06-26T07:41:25;7.65;;;4.60;;
36351;SDS011;22382;44.768;17.206;2023-06-26T07:43:52;6.00;;;4.63;;
36351;SDS011;22382;44.768;17.206;2023-06-26T07:46:19;5.85;;;5.05;;
36351;SDS011;22382;44.768;17.206;2023-06-26T07:48:47;5.65;;;4.95;;
36351;SDS011;22382;44.768;17.206;2023-06-26T07:51:14;5.15;;;4.15;;
36351;SDS011;22382;44.768;17.206;2023-06-26T07:53:41;6.43;;;4.85;;
36351;SDS011;22382;44.768;17.206;2023-06-26T07:56:08;5.68;;;4.88;;
36351;SDS011;22382;44.768;17.206;2023-06-26T07:58:35;5.68;;;4.72;;
36351;SDS011;22382;44.768;17.206;2023-06-26T08:01:04;6.15;;;4.78;;
36351;SDS011;22382;44.768;17.206;2023-06-26T08:03:32;8.63;;;4.75;;
36351;SDS011;22382;44.768;17.206;2023-06-26T08:06:01;7.00;;;4.60;;
36351;SDS011;22382;44.768;17.206;2023-06-26T08:08:29;6.85;;;5.18;;
36351;SDS011;22382;44.768;17.206;2023-06-26T08:10:57;7.63;;;5.00;;
36351;SDS011;22382;44.768;17.206;2023-06-26T08:13:24;5.72;;;4.90;;
36351;SDS011;22382;44.768;17.206;2023-06-26T08:15:52;5.90;;;4.43;;
36351;SDS011;22382;44.768;17.206;2023-06-26T08:18:19;5.75;;;4.90;;
36351;SDS011;22382;44.768;17.206;2023-06-26T08:20:46;6.78;;;5.30;;
36351;SDS011;22382;44.768;17.206;2023-06-26T08:23:14;5.35;;;4.65;;
36351;SDS011;22382;44.768;17.206;2023-06-26T08:25:41;6.40;;;5.13;;
36351;SDS011;22382;44.768;17.206;2023-06-26T08:28:08;6.40;;;4.82;;
36351;SDS011;22382;44.768;17.206;2023-06-26T08:30:35;7.55;;;4.78;;
36351;SDS011;22382;44.768;17.206;2023-06-26T08:33:03;6.03;;;4.88;;
36351;SDS011;22382;44.768;17.206;2023-06-26T08:35:31;5.13;;;4.65;;
36351;SDS011;22382;44.768;17.206;2023-06-26T08:37:58;4.93;;;4.43;;
36351;SDS011;22382;44.768;17.206;2023-06-26T08:40:25;5.90;;;4.57;;
36351;SDS011;22382;44.768;17.206;2023-06-26T08:42:53;6.15;;;4.70;;
36351;SDS011;22382;44.768;17.206;2023-06-26T08:45:21;5.55;;;4.72;;
36351;SDS011;22382;44.768;17.206;2023-06-26T08:47:49;8.00;;;4.68;;
36351;SDS011;22382;44.768;17.206;2023-06-26T08:55:30;5.25;;;4.30;;
36351;SDS011;22382;44.768;17.206;2023-06-26T08:58:00;6.78;;;4.85;;
36351;SDS011;22382;44.768;17.206;2023-06-26T09:00:28;6.25;;;5.32;;
36351;SDS011;22382;44.768;17.206;2023-06-26T09:02:55;6.55;;;4.82;;
36351;SDS011;22382;44.768;17.206;2023-06-26T09:05:23;5.53;;;4.40;;
36351;SDS011;22382;44.768;17.206;2023-06-26T09:07:53;5.85;;;4.63;;
36351;SDS011;22382;44.768;17.206;2023-06-26T09:10:24;5.00;;;4.50;;
36351;SDS011;22382;44.768;17.206;2023-06-26T09:12:55;4.78;;;4.28;;
36351;SDS011;22382;44.768;17.206;2023-06-26T09:15:23;7.57;;;5.05;;
36351;SDS011;22382;44.768;17.206;2023-06-26T09:17:51;5.82;;;4.55;;
36351;SDS011;22382;44.768;17.206;2023-06-26T09:20:27;5.53;;;4.78;;
36351;SDS011;22382;44.768;17.206;2023-06-26T09:22:55;5.47;;;4.18;;
36351;SDS011;22382;44.768;17.206;2023-06-26T09:25:23;5.88;;;3.95;;
36351;SDS011;22382;44.768;17.206;2023-06-26T09:27:50;6.88;;;4.65;;
36351;SDS011;22382;44.768;17.206;2023-06-26T09:30:19;7.55;;;4.90;;
36351;SDS011;22382;44.768;17.206;2023-06-26T09:32:46;5.32;;;4.38;;
36351;SDS011;22382;44.768;17.206;2023-06-26T09:35:14;5.63;;;4.43;;
36351;SDS011;22382;44.768;17.206;2023-06-26T09:37:41;5.10;;;4.45;;
36351;SDS011;22382;44.768;17.206;2023-06-26T09:40:10;5.15;;;4.50;;
36351;SDS011;22382;44.768;17.206;2023-06-26T09:42:37;6.72;;;4.38;;
36351;SDS011;22382;44.768;17.206;2023-06-26T09:45:04;7.10;;;4.60;;
36351;SDS011;22382;44.768;17.206;2023-06-26T09:47:33;5.88;;;4.70;;
36351;SDS011;22382;44.768;17.206;2023-06-26T09:50:04;6.07;;;4.78;;
36351;SDS011;22382;44.768;17.206;2023-06-26T09:52:31;7.03;;;4.88;;
36351;SDS011;22382;44.768;17.206;2023-06-26T09:55:08;5.10;;;3.75;;
36351;SDS011;22382;44.768;17.206;2023-06-26T09:57:37;6.55;;;4.38;;
36351;SDS011;22382;44.768;17.206;2023-06-26T10:00:05;5.85;;;4.43;;
36351;SDS011;22382;44.768;17.206;2023-06-26T10:02:34;5.88;;;4.78;;
36351;SDS011;22382;44.768;17.206;2023-06-26T10:05:02;5.53;;;4.55;;
36351;SDS011;22382;44.768;17.206;2023-06-26T10:07:29;7.55;;;4.57;;
36351;SDS011;22382;44.768;17.206;2023-06-26T10:09:57;7.25;;;4.88;;
36351;SDS011;22382;44.768;17.206;2023-06-26T10:12:28;7.47;;;4.78;;
36351;SDS011;22382;44.768;17.206;2023-06-26T10:14:56;6.25;;;4.95;;
36351;SDS011;22382;44.768;17.206;2023-06-26T10:17:27;5.70;;;4.53;;
36351;SDS011;22382;44.768;17.206;2023-06-26T10:19:56;5.90;;;4.70;;
36351;SDS011;22382;44.768;17.206;2023-06-26T10:22:31;5.68;;;4.60;;
36351;SDS011;22382;44.768;17.206;2023-06-26T10:25:03;7.88;;;4.97;;
36351;SDS011;22382;44.768;17.206;2023-06-26T10:27:36;6.40;;;4.85;;
36351;SDS011;22382;44.768;17.206;2023-06-26T10:30:12;8.48;;;4.80;;
36351;SDS011;22382;44.768;17.206;2023-06-26T10:32:43;5.13;;;4.63;;
36351;SDS011;22382;44.768;17.206;2023-06-26T10:35:12;5.55;;;4.55;;
36351;SDS011;22382;44.768;17.206;2023-06-26T10:37:46;6.53;;;4.30;;
36351;SDS011;22382;44.768;17.206;2023-06-26T10:40:20;6.07;;;3.70;;
36351;SDS011;22382;44.768;17.206;2023-06-26T10:43:07;8.77;;;5.05;;
36351;SDS011;22382;44.768;17.206;2023-06-26T10:45:35;5.70;;;4.05;;
36351;SDS011;22382;44.768;17.206;2023-06-26T10:48:03;5.93;;;4.35;;
36351;SDS011;22382;44.768;17.206;2023-06-26T10:50:32;6.53;;;5.13;;
36351;SDS011;22382;44.768;17.206;2023-06-26T10:56:08;5.53;;;4.68;;
36351;SDS011;22382;44.768;17.206;2023-06-26T11:03:46;5.30;;;4.70;;
36351;SDS011;22382;44.768;17.206;2023-06-26T11:06:33;5.53;;;4.63;;
36351;SDS011;22382;44.768;17.206;2023-06-26T11:14:18;6.07;;;4.80;;
36351;SDS011;22382;44.768;17.206;2023-06-26T11:16:46;7.97;;;4.50;;
36351;SDS011;22382;44.768;17.206;2023-06-26T11:19:18;6.18;;;4.82;;
36351;SDS011;22382;44.768;17.206;2023-06-26T11:21:47;6.43;;;4.78;;
36351;SDS011;22382;44.768;17.206;2023-06-26T11:24:15;6.60;;;4.70;;
36351;SDS011;22382;44.768;17.206;2023-06-26T11:26:43;5.25;;;4.50;;
36351;SDS011;22382;44.768;17.206;2023-06-26T11:29:11;5.63;;;4.47;;
36351;SDS011;22382;44.768;17.206;2023-06-26T11:31:41;5.82;;;4.53;;
36351;SDS011;22382;44.768;17.206;2023-06-26T11:34:09;5.18;;;4.45;;
36351;SDS011;22382;44.768;17.206;2023-06-26T11:36:39;5.20;;;4.18;;
36351;SDS011;22382;44.768;17.206;2023-06-26T11:39:09;6.28;;;4.72;;
36351;SDS011;22382;44.768;17.206;2023-06-26T11:41:39;4.45;;;4.05;;
36351;SDS011;22382;44.768;17.206;2023-06-26T11:44:08;6.82;;;4.57;;
36351;SDS011;22382;44.768;17.206;2023-06-26T11:46:37;5.78;;;4.47;;
36351;SDS011;22382;44.768;17.206;2023-06-26T11:49:05;5.80;;;4.60;;
36351;SDS011;22382;44.768;17.206;2023-06-26T11:51:33;5.97;;;5.15;;
36351;SDS011;22382;44.768;17.206;2023-06-26T11:54:03;6.15;;;4.93;;
36351;SDS011;22382;44.768;17.206;2023-06-26T11:56:31;7.03;;;5.50;;
36351;SDS011;22382;44.768;17.206;2023-06-26T12:01:43;7.25;;;5.30;;
36351;SDS011;22382;44.768;17.206;2023-06-26T12:04:14;5.68;;;5.05;;
36351;SDS011;22382;44.768;17.206;2023-06-26T12:06:48;8.30;;;5.30;;
36351;SDS011;22382;44.768;17.206;2023-06-26T12:09:18;9.75;;;5.45;;
36351;SDS011;22382;44.768;17.206;2023-06-26T12:11:46;6.05;;;5.28;;
36351;SDS011;22382;44.768;17.206;2023-06-26T12:14:15;5.68;;;4.90;;
36351;SDS011;22382;44.768;17.206;2023-06-26T12:16:44;11.02;;;5.05;;
36351;SDS011;22382;44.768;17.206;2023-06-26T12:19:12;6.57;;;5.25;;
36351;SDS011;22382;44.768;17.206;2023-06-26T12:24:09;6.85;;;5.65;;
36351;SDS011;22382;44.768;17.206;2023-06-26T12:26:42;6.93;;;5.18;;
36351;SDS011;22382;44.768;17.206;2023-06-26T12:29:14;8.48;;;5.47;;
36351;SDS011;22382;44.768;17.206;2023-06-26T12:31:50;7.50;;;5.28;;
36351;SDS011;22382;44.768;17.206;2023-06-26T12:34:19;6.95;;;5.18;;
36351;SDS011;22382;44.768;17.206;2023-06-26T12:36:50;7.00;;;5.07;;
36351;SDS011;22382;44.768;17.206;2023-06-26T12:39:19;10.75;;;5.18;;
36351;SDS011;22382;44.768;17.206;2023-06-26T12:41:54;6.15;;;4.97;;
36351;SDS011;22382;44.768;17.206;2023-06-26T12:44:30;6.57;;;5.25;;
36351;SDS011;22382;44.768;17.206;2023-06-26T12:47:00;5.95;;;4.80;;
36351;SDS011;22382;44.768;17.206;2023-06-26T12:49:37;6.57;;;5.10;;
36351;SDS011;22382;44.768;17.206;2023-06-26T12:52:05;7.75;;;5.00;;
36351;SDS011;22382;44.768;17.206;2023-06-26T12:54:35;5.90;;;4.60;;
36351;SDS011;22382;44.768;17.206;2023-06-26T12:57:03;7.60;;;5.80;;
36351;SDS011;22382;44.768;17.206;2023-06-26T12:59:31;7.20;;;5.97;;
36351;SDS011;22382;44.768;17.206;2023-06-26T13:01:59;7.93;;;5.40;;
36351;SDS011;22382;44.768;17.206;2023-06-26T13:04:27;6.60;;;5.90;;
36351;SDS011;22382;44.768;17.206;2023-06-26T13:06:55;9.07;;;6.15;;
36351;SDS011;22382;44.768;17.206;2023-06-26T13:09:23;7.60;;;6.00;;
36351;SDS011;22382;44.768;17.206;2023-06-26T13:11:51;6.20;;;5.45;;
36351;SDS011;22382;44.768;17.206;2023-06-26T13:14:19;7.68;;;5.78;;
36351;SDS011;22382;44.768;17.206;2023-06-26T13:16:47;8.80;;;5.95;;
36351;SDS011;22382;44.768;17.206;2023-06-26T13:19:15;7.53;;;5.53;;
36351;SDS011;22382;44.768;17.206;2023-06-26T13:21:42;5.97;;;5.35;;
36351;SDS011;22382;44.768;17.206;2023-06-26T13:24:10;9.60;;;5.38;;
36351;SDS011;22382;44.768;17.206;2023-06-26T13:26:37;8.00;;;5.22;;
36351;SDS011;22382;44.768;17.206;2023-06-26T13:29:05;8.02;;;5.63;;
36351;SDS011;22382;44.768;17.206;2023-06-26T13:31:32;6.30;;;5.00;;
36351;SDS011;22382;44.768;17.206;2023-06-26T13:34:00;6.40;;;5.25;;
36351;SDS011;22382;44.768;17.206;2023-06-26T13:36:30;6.05;;;5.07;;
36351;SDS011;22382;44.768;17.206;2023-06-26T13:39:01;6.30;;;5.55;;
36351;SDS011;22382;44.768;17.206;2023-06-26T13:41:29;10.07;;;6.10;;
36351;SDS011;22382;44.768;17.206;2023-06-26T13:43:57;6.65;;;5.72;;
36351;SDS011;22382;44.768;17.206;2023-06-26T13:46:31;5.95;;;5.28;;
36351;SDS011;22382;44.768;17.206;2023-06-26T13:48:58;7.30;;;5.30;;
36351;SDS011;22382;44.768;17.206;2023-06-26T13:51:26;6.20;;;5.35;;
36351;SDS011;22382;44.768;17.206;2023-06-26T13:53:53;6.13;;;5.40;;
36351;SDS011;22382;44.768;17.206;2023-06-26T13:56:21;6.43;;;5.50;;
36351;SDS011;22382;44.768;17.206;2023-06-26T13:58:49;6.90;;;4.90;;
36351;SDS011;22382;44.768;17.206;2023-06-26T14:01:16;6.93;;;5.50;;
36351;SDS011;22382;44.768;17.206;2023-06-26T14:03:43;6.80;;;5.85;;
36351;SDS011;22382;44.768;17.206;2023-06-26T14:06:11;7.68;;;5.93;;
36351;SDS011;22382;44.768;17.206;2023-06-26T14:08:38;7.20;;;5.93;;
36351;SDS011;22382;44.768;17.206;2023-06-26T14:11:05;7.53;;;5.57;;
36351;SDS011;22382;44.768;17.206;2023-06-26T14:13:32;6.00;;;5.15;;
36351;SDS011;22382;44.768;17.206;2023-06-26T14:16:00;9.15;;;5.93;;
36351;SDS011;22382;44.768;17.206;2023-06-26T14:18:27;6.95;;;5.75;;
36351;SDS011;22382;44.768;17.206;2023-06-26T14:20:54;6.50;;;5.40;;
36351;SDS011;22382;44.768;17.206;2023-06-26T14:23:21;7.25;;;5.57;;
36351;SDS011;22382;44.768;17.206;2023-06-26T14:25:49;6.70;;;5.25;;
36351;SDS011;22382;44.768;17.206;2023-06-26T14:28:16;8.15;;;5.75;;
36351;SDS011;22382;44.768;17.206;2023-06-26T14:30:43;7.82;;;5.22;;
36351;SDS011;22382;44.768;17.206;2023-06-26T14:33:10;7.07;;;5.28;;
36351;SDS011;22382;44.768;17.206;2023-06-26T14:35:37;6.97;;;5.18;;
36351;SDS011;22382;44.768;17.206;2023-06-26T14:38:05;6.63;;;5.13;;
36351;SDS011;22382;44.768;17.206;2023-06-26T14:40:32;7.50;;;5.22;;
36351;SDS011;22382;44.768;17.206;2023-06-26T14:43:00;7.25;;;5.32;;
36351;SDS011;22382;44.768;17.206;2023-06-26T14:45:28;10.43;;;5.22;;
36351;SDS011;22382;44.768;17.206;2023-06-26T14:47:55;7.38;;;5.30;;
36351;SDS011;22382;44.768;17.206;2023-06-26T14:50:22;5.97;;;5.00;;
36351;SDS011;22382;44.768;17.206;2023-06-26T14:52:50;5.57;;;5.05;;
36351;SDS011;22382;44.768;17.206;2023-06-26T14:55:17;7.68;;;5.35;;
36351;SDS011;22382;44.768;17.206;2023-06-26T14:57:44;6.35;;;4.70;;
36351;SDS011;22382;44.768;17.206;2023-06-26T15:00:12;7.20;;;5.53;;
36351;SDS011;22382;44.768;17.206;2023-06-26T15:02:39;7.00;;;5.13;;
36351;SDS011;22382;44.768;17.206;2023-06-26T15:05:08;5.70;;;5.10;;
36351;SDS011;22382;44.768;17.206;2023-06-26T15:07:35;6.07;;;4.65;;
36351;SDS011;22382;44.768;17.206;2023-06-26T15:10:03;6.95;;;4.93;;
36351;SDS011;22382;44.768;17.206;2023-06-26T15:12:31;5.57;;;4.78;;